Mutual, Colorado
Current Conditions -  °F | °C
As of 7:51 AM on Sunday 23 Nov 2014 (Local Time) from KVTP Reporting Station
Moderate Fog Moderate Fog  
Wind Chill: 13°   Ceiling: 100
Heat Index: 21°   Visibility: 0.25mi
Dew Point: 19°   Wind: 7mph
Humidity: 93%   Direction: 50°NE
Pressure: 29.73"   Gusts: NA
Location:  37.6936°N, 104.772°W
Report Text: KVTP 231451Z AUTO 05006KT 1/4SM FZFG OVC001 M06/M07 A2973 RMK AO2
Loading
Personal Weather Stations






























Interactive Weather Map New forecast layout! Learn more

10-Day Weather Forecast

Advertisements
Track Severe Weather on mobile